Avon Heights, Pennsylvania
Current Conditions -  °F | °C
As of 11:58 PM on Friday 28 Nov 2014 (Local Time) from KMUI Reporting Station
Scattered Clouds Scattered Clouds  
Wind Chill: 26°   Ceiling: Unl
Heat Index: 26°   Visibility: 10mi
Dew Point: 14°   Wind: 3mph
Humidity: 61%   Direction: 200°SSW
Pressure: 30.27"   Gusts: NA
Location:  40.2957°N, 76.4189°W
Report Text: KMUI 290458Z AUTO 20003KT 10SM FEW095 SCT110 M03/M10 A3027 RMK AO2 SLP259 T10331099 400101040 $
Loading
Personal Weather Stations






























Interactive Weather Map New forecast layout! Learn more

10-Day Weather Forecast

Advertisements
Track Severe Weather on mobile